Time;durP1;ratioP1;P1;durP2;ratioP2;P2;SDS_P1;SDS_P2;PMS_P1;PMS_P2;Temp;Humidity;BMP_temperature;BMP_pressure;BME280_temperature;BME280_humidity;BME280_pressure;Samples;Min_cycle;Max_cycle;Signal;HPM_P1;HPM_P2
2022/10/26 00:00:40;;;;;;;33.50;15.00;;;8.60;99.90;;;7.17;100.00;100828.31;4857065;29;20564;-81
2022/10/26 00:03:06;;;;;;;28.63;13.32;;;8.60;99.90;;;7.14;100.00;100820.50;4867077;29;20489;-82
2022/10/26 00:05:33;;;;;;;29.33;13.13;;;8.60;99.90;;;7.09;100.00;100831.09;4867258;29;20040;-80
2022/10/26 00:08:00;;;;;;;26.08;13.27;;;8.60;99.90;;;7.05;100.00;100825.22;4864819;29;20060;-81
2022/10/26 00:10:26;;;;;;;30.20;13.20;;;8.50;99.90;;;7.05;100.00;100819.81;4865791;29;20520;-80
2022/10/26 00:12:52;;;;;;;25.92;12.65;;;8.50;99.90;;;7.02;100.00;100822.88;4864221;29;20029;-81
2022/10/26 00:15:20;;;;;;;23.33;11.02;;;8.50;99.90;;;7.12;100.00;100831.56;4863560;29;20025;-80
2022/10/26 00:17:47;;;;;;;29.53;12.87;;;8.60;99.90;;;7.23;100.00;100824.81;4867161;29;20396;-80
2022/10/26 00:20:13;;;;;;;27.63;12.93;;;8.60;99.90;;;7.17;100.00;100829.13;4867187;29;20047;-82
2022/10/26 00:22:40;;;;;;;25.48;12.77;;;8.60;99.90;;;7.10;100.00;100820.06;4861418;29;20037;-81
2022/10/26 00:25:06;;;;;;;28.30;11.50;;;8.60;99.90;;;7.05;100.00;100825.22;4863807;29;20048;-81
2022/10/26 00:27:33;;;;;;;23.83;11.77;;;8.60;99.90;;;7.01;100.00;100826.63;4863931;29;20037;-81
2022/10/26 00:30:00;;;;;;;25.10;11.50;;;8.50;99.90;;;6.95;100.00;100830.09;4861542;29;20505;-81
2022/10/26 00:32:27;;;;;;;24.40;11.30;;;8.40;99.90;;;6.95;100.00;100832.78;4863525;29;20097;-81
2022/10/26 00:34:53;;;;;;;28.70;11.65;;;8.40;99.90;;;6.92;100.00;100825.91;4864667;29;20323;-80
2022/10/26 00:37:18;;;;;;;19.85;10.88;;;8.40;99.90;;;7.00;100.00;100836.63;4861418;29;20056;-80
2022/10/26 00:39:44;;;;;;;19.05;10.70;;;8.40;99.90;;;7.08;100.00;100837.56;4857917;29;20121;-80
2022/10/26 00:42:20;;;;;;;20.15;10.68;;;8.50;99.90;;;7.14;100.00;100836.78;4859545;29;20029;-80
2022/10/26 00:44:45;;;;;;;23.52;11.02;;;8.60;99.90;;;7.22;100.00;100839.41;4859099;29;20041;-81
2022/10/26 00:47:28;;;;;;;24.05;9.85;;;8.60;99.90;;;7.26;100.00;100823.56;4857932;29;20064;-80
2022/10/26 00:49:59;;;;;;;21.90;9.35;;;8.70;99.90;;;7.31;100.00;100827.41;4863376;29;20052;-81
2022/10/26 00:52:27;;;;;;;19.00;9.82;;;8.80;99.90;;;7.35;100.00;100836.03;4863288;29;20033;-80
2022/10/26 00:54:53;;;;;;;20.58;9.80;;;8.80;99.90;;;7.31;100.00;100829.31;4869474;29;20045;-80
2022/10/26 00:57:19;;;;;;;18.33;9.18;;;8.70;99.90;;;7.32;100.00;100825.56;4874020;29;20100;-80
2022/10/26 00:59:47;;;;;;;23.85;10.02;;;8.70;99.90;;;7.34;100.00;100818.06;4865203;29;20052;-81
2022/10/26 01:02:13;;;;;;;24.65;9.55;;;8.80;99.90;;;7.30;100.00;100814.06;4858738;29;20041;-79
2022/10/26 01:04:39;;;;;;;19.77;8.98;;;8.80;99.90;;;7.33;100.00;100813.66;4865177;29;20045;-80
2022/10/26 01:07:07;;;;;;;22.15;9.10;;;8.80;99.90;;;7.38;100.00;100819.34;4857235;29;20037;-80
2022/10/26 01:09:34;;;;;;;22.40;9.85;;;8.80;99.90;;;7.30;100.00;100816.75;4865652;29;20036;-80
2022/10/26 01:12:00;;;;;;;18.63;9.47;;;8.80;99.90;;;7.10;100.00;100792.94;4862335;29;20034;-80
2022/10/26 01:14:27;;;;;;;26.83;9.55;;;8.70;99.90;;;7.18;100.00;100805.56;4859965;29;20670;-81
2022/10/26 01:17:27;;;;;;;18.65;8.52;;;8.70;99.90;;;7.15;100.00;100817.63;4861661;29;20123;-80
2022/10/26 01:20:20;;;;;;;21.50;9.32;;;8.60;99.90;;;7.00;100.00;100804.09;4862376;29;20040;-80
2022/10/26 01:23:12;;;;;;;17.48;8.13;;;8.60;99.90;;;6.90;100.00;100815.22;4860648;29;20476;-80
2022/10/26 01:26:12;;;;;;;14.70;8.07;;;8.40;99.90;;;6.64;100.00;100815.72;4853803;29;20568;-79
2022/10/26 01:29:09;;;;;;;17.95;8.25;;;8.20;99.90;;;6.44;100.00;100813.53;4865358;29;20563;-80
2022/10/26 01:32:09;;;;;;;18.38;8.20;;;8.00;99.90;;;6.30;100.00;100808.94;4859691;29;20464;-80
2022/10/26 01:35:05;;;;;;;19.20;7.97;;;7.80;99.90;;;6.21;100.00;100804.63;4870004;29;20059;-80
2022/10/26 01:37:42;;;;;;;14.95;6.93;;;7.70;99.90;;;6.12;100.00;100799.31;4866227;29;20124;-80
2022/10/26 01:40:27;;;;;;;18.88;8.25;;;7.70;99.90;;;6.02;100.00;100801.41;4859233;29;20037;-81
2022/10/26 01:42:58;;;;;;;13.93;7.18;;;7.50;99.90;;;5.89;100.00;100805.56;4866421;29;20048;-80
2022/10/26 01:45:26;;;;;;;18.60;8.98;;;7.40;99.90;;;5.86;100.00;100811.34;4864833;29;20043;-81
2022/10/26 01:47:55;;;;;;;19.48;9.30;;;7.30;99.90;;;6.05;100.00;100806.44;4865205;29;20048;-80
2022/10/26 01:50:22;;;;;;;22.77;9.05;;;7.50;99.90;;;6.27;100.00;100803.88;4866574;29;20040;-80
2022/10/26 01:52:49;;;;;;;23.90;9.32;;;7.70;99.90;;;6.42;100.00;100807.47;4864316;29;20088;-79
2022/10/26 01:55:48;;;;;;;23.70;10.05;;;7.80;99.90;;;6.67;100.00;100809.91;4859986;29;20056;-80
2022/10/26 01:58:39;;;;;;;24.85;9.85;;;8.00;99.90;;;6.69;100.00;100801.56;4842852;29;20040;-79
2022/10/26 02:01:17;;;;;;;19.02;9.75;;;8.20;99.90;;;6.72;100.00;100806.63;4855919;29;20033;-79
2022/10/26 02:04:23;;;;;;;22.38;9.32;;;8.20;99.90;;;6.80;100.00;100795.69;4858532;29;20029;-79
2022/10/26 02:07:04;;;;;;;23.80;9.57;;;8.30;99.90;;;6.94;100.00;100791.28;4857385;29;20541;-80
2022/10/26 02:10:05;;;;;;;28.92;10.23;;;8.40;99.90;;;6.96;100.00;100783.81;4856729;29;20120;-78
2022/10/26 02:13:07;;;;;;;20.30;9.73;;;8.50;99.90;;;7.12;100.00;100784.59;4854317;29;20370;-80
2022/10/26 02:15:42;;;;;;;21.95;9.77;;;8.60;99.90;;;7.05;100.00;100774.50;4859958;29;20041;-80
2022/10/26 02:18:41;;;;;;;20.98;10.25;;;8.60;99.90;;;7.16;100.00;100785.88;4862963;29;20037;-78
2022/10/26 02:21:14;;;;;;;27.05;11.93;;;8.60;99.90;;;7.13;100.00;100773.56;4855862;29;20060;-80
2022/10/26 02:23:44;;;;;;;27.05;10.88;;;8.70;99.90;;;7.16;100.00;100769.59;4861275;29;20147;-79
2022/10/26 02:26:16;;;;;;;21.17;10.30;;;8.70;99.90;;;7.28;100.00;100772.66;4853574;29;20029;-79
2022/10/26 02:28:51;;;;;;;24.50;10.68;;;8.80;99.90;;;7.33;100.00;100776.50;4857594;29;20067;-79
2022/10/26 02:31:19;;;;;;;27.50;11.38;;;8.80;99.90;;;7.32;100.00;100776.69;4867282;29;20029;-79
2022/10/26 02:33:49;;;;;;;28.60;11.02;;;8.80;99.90;;;7.39;100.00;100772.19;4865243;29;20166;-79
2022/10/26 02:36:27;;;;;;;25.98;10.50;;;8.90;99.90;;;7.30;100.00;100755.16;4859154;29;20045;-80
2022/10/26 02:38:56;;;;;;;27.08;10.35;;;8.90;99.90;;;7.22;100.00;100754.44;4840113;29;20033;-79
2022/10/26 02:41:26;;;;;;;29.15;10.60;;;8.80;99.90;;;7.33;100.00;100753.94;4856703;29;20498;-79
2022/10/26 02:44:06;;;;;;;29.92;11.20;;;8.80;99.90;;;7.35;100.00;100757.31;4862953;29;20430;-79
2022/10/26 02:46:33;;;;;;;27.20;10.27;;;8.80;99.90;;;7.27;100.00;100760.97;4866014;29;20481;-79
2022/10/26 02:48:59;;;;;;;23.60;11.02;;;8.80;99.90;;;7.26;100.00;100750.31;4867384;29;20025;-79
2022/10/26 02:51:57;;;;;;;25.85;10.00;;;8.80;99.90;;;7.13;100.00;100742.88;4863962;29;20037;-79
2022/10/26 02:54:48;;;;;;;24.00;9.30;;;8.70;99.90;;;7.09;100.00;100756.00;4856403;29;20029;-79
2022/10/26 02:57:28;;;;;;;24.27;9.45;;;8.60;99.90;;;7.04;100.00;100750.31;4858355;29;20189;-79
2022/10/26 02:59:55;;;;;;;20.65;9.23;;;8.50;99.90;;;7.00;100.00;100748.97;4863008;29;20033;-79
2022/10/26 03:02:22;;;;;;;25.70;9.55;;;8.50;99.90;;;7.02;100.00;100752.34;4865067;29;20657;-79
2022/10/26 03:04:50;;;;;;;25.48;9.88;;;8.50;99.90;;;7.09;100.00;100741.56;4868499;29;20098;-80
2022/10/26 03:07:25;;;;;;;23.70;9.32;;;8.60;99.90;;;7.05;100.00;100741.13;4871200;29;20146;-77
2022/10/26 03:09:51;;;;;;;25.65;9.63;;;8.60;99.90;;;7.01;100.00;100732.53;4855673;29;20291;-79
2022/10/26 03:12:17;;;;;;;29.38;8.98;;;8.60;99.90;;;7.07;100.00;100733.63;4865479;29;20563;-78
2022/10/26 03:14:42;;;;;;;24.52;8.52;;;8.60;99.90;;;7.05;100.00;100741.97;4862072;29;20033;-77
2022/10/26 03:17:08;;;;;;;20.27;8.20;;;8.60;99.90;;;7.00;100.00;100741.69;4870313;29;20083;-77
2022/10/26 03:19:34;;;;;;;17.77;8.07;;;8.60;99.90;;;6.94;100.00;100737.03;4873049;29;20124;-77
2022/10/26 03:22:00;;;;;;;16.92;7.63;;;8.50;99.90;;;6.90;100.00;100738.47;4872433;29;20025;-77
2022/10/26 03:24:25;;;;;;;19.63;8.32;;;8.40;99.90;;;6.84;100.00;100747.31;4870026;29;20414;-77
2022/10/26 03:26:51;;;;;;;17.10;8.07;;;8.40;99.90;;;6.71;100.00;100734.44;4867130;29;20541;-79
2022/10/26 03:29:17;;;;;;;16.98;7.50;;;8.30;99.90;;;6.72;100.00;100738.84;4869449;29;20037;-78
2022/10/26 03:31:42;;;;;;;16.20;7.07;;;8.20;99.90;;;6.64;100.00;100742.50;4869661;29;20044;-77
2022/10/26 03:34:08;;;;;;;18.73;7.90;;;8.10;99.90;;;6.55;100.00;100741.75;4869225;29;20033;-79
2022/10/26 03:36:34;;;;;;;17.25;7.90;;;8.10;99.90;;;6.50;100.00;100738.78;4865843;29;20430;-78
2022/10/26 03:39:00;;;;;;;18.52;7.38;;;8.00;99.90;;;6.39;100.00;100726.53;4873148;29;20033;-80
2022/10/26 03:41:32;;;;;;;21.23;8.02;;;7.90;99.90;;;6.40;100.00;100730.94;4891103;29;20095;-80
2022/10/26 03:44:06;;;;;;;21.98;8.20;;;8.00;99.90;;;6.39;100.00;100720.25;4902055;29;20021;-80
2022/10/26 03:46:34;;;;;;;22.70;9.68;;;7.90;99.90;;;5.95;100.00;100633.34;5261118;23;20045;-81
2022/10/26 03:49:00;;;;;;;25.10;10.23;;;8.00;99.90;;;6.64;100.00;100722.69;4890079;29;20663;-80
2022/10/26 03:51:26;;;;;;;23.00;10.55;;;8.10;99.90;;;6.58;100.00;100697.16;4871480;29;20047;-78
2022/10/26 03:53:52;;;;;;;26.90;10.48;;;8.20;99.90;;;6.72;100.00;100720.72;4862896;29;20497;-77
2022/10/26 03:56:18;;;;;;;31.52;10.20;;;8.30;99.90;;;6.64;100.00;100720.81;4861595;29;20511;-79
2022/10/26 03:58:44;;;;;;;26.45;10.40;;;8.20;99.90;;;6.64;100.00;100718.13;4868896;29;20044;-78
2022/10/26 04:01:09;;;;;;;31.02;11.93;;;8.20;99.90;;;6.60;100.00;100704.09;4859090;29;20040;-77
2022/10/26 04:03:35;;;;;;;29.73;12.00;;;8.20;99.90;;;6.73;100.00;100721.53;4866939;29;20138;-76
2022/10/26 04:06:02;;;;;;;28.70;11.50;;;8.30;99.90;;;6.69;100.00;100720.25;4860378;29;20100;-77
2022/10/26 04:08:28;;;;;;;31.85;11.95;;;8.20;99.90;;;6.70;100.00;100717.34;4857112;29;20037;-77
2022/10/26 04:10:53;;;;;;;31.33;12.10;;;8.20;99.90;;;6.64;100.00;100719.97;4863043;29;20386;-77
2022/10/26 04:13:19;;;;;;;30.05;12.07;;;8.20;99.90;;;6.58;100.00;100713.44;4859859;29;20067;-77
2022/10/26 04:15:45;;;;;;;31.65;12.63;;;8.10;99.90;;;6.67;100.00;100711.44;4860347;29;20041;-77
2022/10/26 04:18:11;;;;;;;34.60;12.73;;;8.20;99.90;;;6.73;100.00;100705.25;4861354;29;20041;-77
2022/10/26 04:20:41;;;;;;;32.63;12.48;;;8.20;99.90;;;6.67;100.00;100708.75;4856195;29;20052;-77
2022/10/26 04:23:11;;;;;;;32.85;12.20;;;8.20;99.90;;;6.66;100.00;100705.22;4852898;29;20036;-77
2022/10/26 04:25:37;;;;;;;37.78;12.80;;;8.20;99.90;;;6.72;100.00;100709.88;4855952;29;20084;-77
2022/10/26 04:28:05;;;;;;;34.33;12.10;;;8.20;99.90;;;6.65;100.00;100710.81;4851056;29;20397;-77
2022/10/26 04:30:33;;;;;;;31.00;11.60;;;8.20;99.90;;;6.74;100.00;100710.50;4856858;29;20053;-77
2022/10/26 04:32:58;;;;;;;29.25;12.30;;;8.20;99.90;;;6.83;100.00;100713.97;4856746;29;20184;-76
2022/10/26 04:35:25;;;;;;;32.97;12.32;;;8.30;99.90;;;6.75;100.00;100695.06;4852341;29;20044;-75
2022/10/26 04:37:56;;;;;;;33.85;11.63;;;8.40;99.90;;;6.82;100.00;100716.84;4851898;29;20089;-76
2022/10/26 04:40:22;;;;;;;27.20;11.43;;;8.30;99.90;;;6.79;100.00;100709.09;4853659;29;20049;-76
2022/10/26 04:42:47;;;;;;;33.28;10.85;;;8.30;99.90;;;6.75;100.00;100711.34;4850108;29;20033;-77
2022/10/26 04:45:15;;;;;;;29.75;10.63;;;8.30;99.90;;;6.70;100.00;100716.50;4858532;29;20225;-77
2022/10/26 04:47:41;;;;;;;31.48;10.85;;;8.20;99.90;;;6.68;100.00;100708.56;4859366;29;20433;-76
2022/10/26 04:50:09;;;;;;;25.92;11.10;;;8.20;99.90;;;6.71;100.00;100713.59;4853193;29;20456;-76
2022/10/26 04:52:36;;;;;;;27.70;10.27;;;8.20;99.90;;;6.81;100.00;100717.88;4860187;29;20036;-76
2022/10/26 04:55:04;;;;;;;25.00;10.70;;;8.30;99.90;;;7.09;100.00;100714.44;4852934;29;20325;-77
2022/10/26 04:57:32;;;;;;;28.80;10.98;;;8.50;99.90;;;6.99;100.00;100712.88;4855829;29;20034;-77
2022/10/26 04:59:59;;;;;;;23.27;9.88;;;8.50;99.90;;;6.88;100.00;100707.94;4856332;29;20041;-78
2022/10/26 05:02:27;;;;;;;29.38;10.18;;;8.40;99.90;;;6.72;100.00;100703.59;4854820;29;20048;-78
2022/10/26 05:04:53;;;;;;;21.75;9.73;;;8.30;99.90;;;6.67;100.00;100708.75;4851852;29;20493;-77
2022/10/26 05:07:18;;;;;;;25.60;9.07;;;8.20;99.90;;;6.44;100.00;100690.72;4850199;29;20052;-75
2022/10/26 05:09:46;;;;;;;24.13;8.63;;;8.00;99.90;;;6.33;100.00;100711.00;4860668;29;20079;-78
2022/10/26 05:12:12;;;;;;;22.98;7.65;;;7.80;99.90;;;6.28;100.00;100705.31;4861707;29;20093;-76
2022/10/26 05:14:37;;;;;;;21.17;8.00;;;7.80;99.90;;;6.19;100.00;100705.41;4859090;29;20490;-77
2022/10/26 05:17:03;;;;;;;18.45;8.10;;;7.60;99.90;;;6.09;100.00;100699.41;4852518;29;20037;-77
2022/10/26 05:19:29;;;;;;;19.85;8.10;;;7.50;99.90;;;6.04;100.00;100694.56;4834863;29;20100;-77
2022/10/26 05:21:55;;;;;;;21.00;7.80;;;7.50;99.90;;;5.94;100.00;100698.53;4852332;29;20485;-78
2022/10/26 05:24:20;;;;;;;26.30;9.55;;;7.40;99.90;;;5.89;100.00;100697.25;4858819;29;20048;-77
2022/10/26 05:26:46;;;;;;;18.85;7.57;;;7.40;99.90;;;5.78;100.00;100694.97;4853402;29;20049;-77
2022/10/26 05:29:12;;;;;;;14.32;6.95;;;7.30;99.90;;;5.73;100.00;100708.22;4849881;29;20038;-76
2022/10/26 05:31:37;;;;;;;16.63;6.35;;;7.20;99.90;;;5.64;100.00;100706.63;4849281;29;20032;-77
2022/10/26 05:34:03;;;;;;;12.55;6.35;;;7.10;99.90;;;5.50;100.00;100700.97;4850912;29;20037;-76
2022/10/26 05:36:29;;;;;;;12.38;6.65;;;7.00;99.90;;;5.45;100.00;100711.50;4854633;29;20032;-77
2022/10/26 05:38:59;;;;;;;13.23;6.20;;;6.90;99.90;;;5.41;100.00;100711.00;4852579;29;20033;-80
2022/10/26 05:41:25;;;;;;;11.93;6.38;;;6.90;99.90;;;5.36;100.00;100709.91;4850278;29;20044;-78
2022/10/26 05:43:51;;;;;;;11.18;6.18;;;6.90;99.90;;;5.26;100.00;100699.31;4851414;29;20032;-77
2022/10/26 05:46:16;;;;;;;13.65;5.97;;;6.80;99.90;;;5.21;100.00;100713.38;4856758;29;20042;-78
2022/10/26 05:48:42;;;;;;;12.13;5.88;;;6.70;99.90;;;5.18;100.00;100702.91;4853649;29;20042;-77
2022/10/26 05:51:09;;;;;;;10.93;5.97;;;6.70;99.90;;;5.15;100.00;100711.38;4856034;29;20040;-77
2022/10/26 05:53:35;;;;;;;11.13;6.05;;;6.60;99.90;;;5.11;100.00;100705.47;4854322;29;20033;-77
2022/10/26 05:56:01;;;;;;;13.60;5.82;;;6.60;99.90;;;5.19;100.00;100710.00;4850897;29;20085;-78
2022/10/26 05:58:27;;;;;;;14.57;6.72;;;6.70;99.90;;;5.20;100.00;100711.69;4852819;29;20052;-78
2022/10/26 06:01:27;;;;;;;22.50;8.25;;;6.70;99.90;;;5.57;100.00;100712.78;4853452;29;20190;-76
2022/10/26 06:04:10;;;;;;;;;;;7.10;99.90;;;5.85;100.00;100701.34;4849644;29;20038;-76
2022/10/26 06:06:45;;;;;;;23.88;9.43;;;7.30;99.90;;;6.07;100.00;100703.34;4849358;29;19916;-77
2022/10/26 06:09:13;;;;;;;22.25;9.48;;;7.60;99.90;;;6.16;100.00;100710.34;4847772;29;20059;-77
2022/10/26 06:11:39;;;;;;;;;;;7.60;99.90;;;6.17;100.00;100714.75;4848351;29;20042;-76
2022/10/26 06:14:06;;;;;;;22.30;9.73;;;7.70;99.90;;;6.33;100.00;100711.00;4847470;29;19964;-76
2022/10/26 06:17:05;;;;;;;25.30;10.70;;;7.80;99.90;;;6.39;100.00;100717.56;4847464;29;20485;-76
2022/10/26 06:20:10;;;;;;;25.58;10.45;;;7.90;99.90;;;6.31;100.00;100703.09;4851235;29;20454;-77
2022/10/26 06:23:32;;;;;;;21.38;9.85;;;7.90;99.90;;;6.29;100.00;100713.28;4854238;29;20038;-77
2022/10/26 06:26:13;;;;;;;23.45;9.23;;;7.80;99.90;;;6.19;100.00;100716.25;4848648;29;20619;-77
2022/10/26 06:29:00;;;;;;;22.85;8.45;;;7.80;99.90;;;6.10;100.00;100716.53;4850338;29;20045;-77
2022/10/26 06:31:26;;;;;;;20.23;8.52;;;7.70;99.90;;;6.01;100.00;100713.91;4852658;29;20478;-77
2022/10/26 06:33:59;;;;;;;28.58;9.35;;;7.50;99.90;;;5.97;100.00;100725.25;4850824;29;20037;-77
2022/10/26 06:36:27;;;;;;;21.60;8.90;;;7.40;99.90;;;5.97;100.00;100714.44;4854594;29;20030;-77
2022/10/26 06:39:09;;;;;;;20.67;8.50;;;7.40;99.90;;;5.92;100.00;100714.16;4858614;29;20089;-78
2022/10/26 06:41:36;;;;;;;21.15;8.30;;;7.40;99.90;;;5.99;100.00;100725.91;4856122;29;20025;-78
2022/10/26 06:44:05;;;;;;;20.90;8.85;;;7.50;99.90;;;6.00;100.00;100727.59;4854218;29;20041;-78
2022/10/26 06:46:50;;;;;;;24.33;9.13;;;7.50;99.90;;;6.09;100.00;100723.78;4855197;29;20098;-77
2022/10/26 06:49:30;;;;;;;25.98;9.18;;;7.60;99.90;;;6.19;100.00;100735.22;4854005;29;20041;-77
2022/10/26 06:52:12;;;;;;;25.85;9.38;;;7.70;99.90;;;6.27;100.00;100728.03;4859084;29;20796;-76
2022/10/26 06:54:54;;;;;;;30.15;9.75;;;7.80;99.90;;;6.33;100.00;100728.13;4847921;29;20033;-78
2022/10/26 06:57:25;;;;;;;24.40;9.48;;;7.90;99.90;;;6.31;100.00;100719.34;4850332;29;21170;-77
2022/10/26 07:00:03;;;;;;;29.02;9.98;;;7.90;99.90;;;6.45;100.00;100736.63;4849150;29;20043;-77
2022/10/26 07:02:28;;;;;;;26.70;9.65;;;8.00;99.90;;;6.50;100.00;100736.06;4852871;29;20037;-77
2022/10/26 07:04:54;;;;;;;31.27;9.98;;;8.00;99.90;;;6.61;100.00;100732.03;4853860;29;20046;-77
2022/10/26 07:07:23;;;;;;;26.20;9.52;;;8.10;99.90;;;6.70;100.00;100733.63;4852334;29;20034;-77
2022/10/26 07:09:50;;;;;;;31.05;11.23;;;8.20;99.90;;;6.75;100.00;100728.47;4852108;29;20468;-77
2022/10/26 07:12:16;;;;;;;34.08;10.88;;;8.30;99.90;;;7.00;100.00;100740.84;4852458;29;20081;-77
2022/10/26 07:14:42;;;;;;;30.52;11.35;;;8.50;99.90;;;7.16;100.00;100743.34;4852580;29;20400;-77
2022/10/26 07:17:10;;;;;;;32.03;12.07;;;8.60;99.90;;;7.33;100.00;100746.63;4850522;29;20033;-77
2022/10/26 07:19:35;;;;;;;36.25;12.70;;;8.80;99.90;;;7.50;100.00;100746.41;4858466;29;20041;-77
2022/10/26 07:22:02;;;;;;;30.27;12.27;;;9.00;99.90;;;7.64;100.00;100739.22;4851031;29;20421;-77
2022/10/26 07:24:29;;;;;;;32.80;11.80;;;9.10;99.90;;;7.83;100.00;100740.41;4852084;29;20056;-77
2022/10/26 07:26:56;;;;;;;26.40;11.32;;;9.30;99.90;;;8.03;100.00;100745.16;4848981;29;20131;-76
2022/10/26 07:29:26;;;;;;;34.20;12.38;;;9.50;99.90;;;8.27;100.00;100751.19;4847009;29;20633;-77
2022/10/26 07:31:52;;;;;;;26.55;11.25;;;9.70;99.90;;;8.48;100.00;100750.25;4848958;29;20017;-77
2022/10/26 07:34:18;;;;;;;29.45;10.85;;;9.90;99.90;;;8.66;100.00;100751.66;4847702;29;20673;-77
2022/10/26 07:36:44;;;;;;;26.88;10.50;;;10.10;99.90;;;8.66;100.00;100754.38;4848488;29;20112;-77
2022/10/26 07:39:10;;;;;;;21.40;9.40;;;10.20;99.90;;;8.76;100.00;100755.69;4850315;29;20712;-76
2022/10/26 07:41:35;;;;;;;19.23;8.45;;;10.30;99.90;;;8.86;100.00;100754.47;4851396;29;20406;-76
2022/10/26 07:44:01;;;;;;;16.63;8.32;;;10.30;99.90;;;8.81;100.00;100755.06;4851754;29;20042;-76
2022/10/26 07:46:27;;;;;;;22.60;9.15;;;10.40;99.90;;;8.91;100.00;100747.38;4854817;29;20042;-76
2022/10/26 07:48:53;;;;;;;17.45;8.32;;;10.40;99.90;;;9.00;100.00;100752.63;4853293;29;20037;-77
2022/10/26 07:51:19;;;;;;;21.77;8.10;;;10.50;99.90;;;9.12;100.00;100759.16;4855036;29;20647;-76
2022/10/26 07:53:45;;;;;;;19.83;8.05;;;10.50;99.90;;;9.23;100.00;100752.28;4859174;29;20114;-77
2022/10/26 07:56:12;;;;;;;13.98;7.00;;;10.60;99.90;;;9.34;100.00;100757.13;4854247;29;20084;-79
2022/10/26 07:58:38;;;;;;;14.27;7.35;;;10.70;99.90;;;9.45;100.00;100761.13;4855283;29;20049;-78
2022/10/26 08:01:13;;;;;;;14.50;7.38;;;10.80;99.90;;;9.64;100.00;100769.53;4838054;29;20034;-78
2022/10/26 08:03:39;;;;;;;13.93;7.18;;;11.00;99.90;;;9.72;100.00;100773.94;4855928;29;20089;-79
2022/10/26 08:06:06;;;;;;;14.40;6.75;;;11.10;99.90;;;9.78;100.00;100764.94;4854151;29;20040;-79
2022/10/26 08:08:32;;;;;;;12.50;6.40;;;11.20;99.90;;;9.86;100.00;100772.91;4850039;29;20132;-79
2022/10/26 08:10:58;;;;;;;13.82;6.43;;;11.30;99.90;;;9.92;100.00;100765.78;4851698;29;20504;-79
2022/10/26 08:13:24;;;;;;;10.75;5.57;;;11.30;99.90;;;9.99;100.00;100761.19;4835205;29;20045;-80
2022/10/26 08:16:00;;;;;;;12.68;6.00;;;11.40;99.90;;;10.06;100.00;100766.59;4852973;29;20761;-78
2022/10/26 08:18:26;;;;;;;14.13;6.03;;;11.40;99.90;;;10.12;100.00;100759.47;4854856;29;20599;-79
2022/10/26 08:20:53;;;;;;;12.55;5.70;;;11.40;99.90;;;10.17;100.00;100765.13;4854764;29;20037;-79
2022/10/26 08:23:20;;;;;;;9.65;5.40;;;11.50;99.90;;;10.16;100.00;100747.94;4854080;29;20723;-79
2022/10/26 08:25:46;;;;;;;12.65;5.80;;;11.50;99.90;;;10.34;100.00;100769.09;4858699;29;20040;-80
2022/10/26 08:28:12;;;;;;;10.02;5.57;;;11.60;99.90;;;10.29;100.00;100765.34;4856835;29;20034;-80
2022/10/26 08:30:38;;;;;;;10.10;5.20;;;11.60;99.90;;;10.39;100.00;100776.66;4854954;29;20562;-78
2022/10/26 08:33:06;;;;;;;8.50;4.95;;;11.60;99.90;;;10.48;100.00;100780.84;4853343;29;20044;-81
2022/10/26 08:35:33;;;;;;;8.30;4.55;;;11.60;99.90;;;10.55;100.00;100788.19;4853226;29;20090;-80
2022/10/26 08:37:59;;;;;;;10.95;4.75;;;11.70;99.90;;;10.65;100.00;100783.13;4851922;29;20132;-81
2022/10/26 08:40:33;;;;;;;12.10;4.53;;;11.80;99.90;;;10.74;100.00;100790.03;4850168;29;20045;-78
2022/10/26 08:43:23;;;;;;;9.80;4.15;;;11.80;99.90;;;10.86;100.00;100789.34;4851772;29;20428;-78
2022/10/26 08:46:08;;;;;;;9.55;4.20;;;11.90;99.90;;;10.88;100.00;100773.63;4852126;29;20201;-79
2022/10/26 08:48:41;;;;;;;8.63;4.43;;;12.10;99.90;;;11.04;100.00;100786.78;4858102;29;20580;-79
2022/10/26 08:51:23;;;;;;;8.82;4.53;;;12.20;99.90;;;11.24;100.00;100794.03;4853511;29;20301;-80
2022/10/26 08:54:09;;;;;;;11.65;4.95;;;12.30;99.90;;;11.42;100.00;100784.28;4861349;29;20037;-81
2022/10/26 08:56:43;;;;;;;12.40;4.93;;;12.50;99.90;;;11.50;100.00;100793.03;4856089;29;20029;-80
2022/10/26 08:59:19;;;;;;;9.40;4.75;;;12.60;99.90;;;11.62;100.00;100793.19;4853637;29;20495;-80
2022/10/26 09:01:45;;;;;;;9.60;4.88;;;12.70;99.90;;;11.74;100.00;100793.31;4856357;29;20072;-81
2022/10/26 09:04:15;;;;;;;12.02;5.40;;;12.90;99.90;;;11.87;100.00;100789.63;4853905;29;20106;-80
2022/10/26 09:06:43;;;;;;;7.93;5.28;;;13.00;99.90;;;12.03;100.00;100791.00;4855198;29;20067;-81
2022/10/26 09:09:37;;;;;;;7.60;4.38;;;13.20;99.90;;;12.10;100.00;100792.88;4858915;29;20037;-81
2022/10/26 09:12:18;;;;;;;9.68;4.07;;;13.30;99.90;;;12.16;100.00;100787.31;4857623;29;20029;-82
2022/10/26 09:15:08;;;;;;;12.75;4.05;;;13.40;99.90;;;12.18;100.00;100785.19;4860610;29;20025;-79
2022/10/26 09:17:56;;;;;;;8.40;3.80;;;13.50;99.90;;;12.37;100.00;100793.47;4863654;29;20515;-79
2022/10/26 09:21:00;;;;;;;6.97;3.85;;;13.60;99.90;;;12.64;100.00;100798.66;4862949;29;20049;-82
2022/10/26 09:23:53;;;;;;;7.53;3.72;;;13.80;99.90;;;12.97;100.00;100804.84;4848706;29;20044;-82
2022/10/26 09:26:39;;;;;;;6.97;3.50;;;14.00;99.90;;;13.09;100.00;100806.56;4843834;29;20041;-80
2022/10/26 09:29:12;;;;;;;8.32;3.20;;;14.40;99.90;;;13.25;100.00;100796.03;4863585;29;20125;-82
2022/10/26 09:31:43;;;;;;;5.07;3.13;;;14.50;99.90;;;13.45;100.00;100801.28;4876144;29;20029;-82
2022/10/26 09:34:31;;;;;;;10.52;3.38;;;14.80;99.90;;;14.03;100.00;100803.56;4868906;29;20041;-79
2022/10/26 09:36:57;;;;;;;6.30;2.83;;;15.80;99.90;;;14.64;100.00;100806.13;4864773;29;20017;-83
2022/10/26 09:39:42;;;;;;;7.15;2.72;;;17.40;99.90;;;15.30;100.00;100810.53;4865154;29;20040;-81
2022/10/26 09:42:44;;;;;;;7.22;2.00;;;18.30;99.90;;;16.08;94.50;100802.63;4858681;29;20421;-79
2022/10/26 09:45:37;;;;;;;5.40;1.95;;;19.20;99.90;;;16.27;93.51;100816.13;4859999;29;20141;-82
2022/10/26 09:48:26;;;;;;;4.93;1.70;;;18.70;99.90;;;17.36;83.73;100804.66;4867318;29;20017;-82
2022/10/26 09:50:52;;;;;;;;;;;19.00;99.90;;;18.52;78.10;100838.56;4877194;29;20393;-80
2022/10/26 09:53:18;;;;;;;7.22;1.85;;;19.90;99.90;;;17.69;76.50;100832.31;4858558;29;19982;-78
2022/10/26 09:55:58;;;;;;;5.13;1.80;;;19.80;99.90;;;17.35;80.70;100830.56;4865398;29;20033;-78
2022/10/26 09:58:31;;;;;;;6.57;1.70;;;19.30;99.90;;;17.04;82.01;100827.44;4861868;29;20056;-80
2022/10/26 10:00:56;;;;;;;5.50;1.80;;;18.90;99.90;;;16.48;84.47;100832.97;4863072;29;20029;-78
2022/10/26 10:03:31;;;;;;;6.25;2.08;;;18.50;99.90;;;16.42;87.07;100834.78;4859673;29;20544;-80
2022/10/26 10:06:26;;;;;;;5.50;1.73;;;18.10;99.90;;;16.75;83.83;100827.59;4865387;29;20026;-78
2022/10/26 10:09:05;;;;;;;7.10;1.75;;;18.10;99.90;;;16.78;81.01;100821.56;4844348;29;20105;-78
2022/10/26 10:11:53;;;;;;;8.23;2.30;;;18.30;99.90;;;16.95;81.50;100815.16;4856088;29;20084;-77
2022/10/26 10:14:22;;;;;;;4.38;1.80;;;18.30;99.90;;;16.41;81.92;100816.59;4853281;29;20038;-78
2022/10/26 10:16:56;;;;;;;3.65;1.45;;;18.20;99.90;;;16.20;85.33;100805.28;4861685;29;20111;-82
2022/10/26 10:19:36;;;;;;;4.78;1.65;;;17.90;99.90;;;15.92;85.03;100818.03;4853474;29;20038;-76
2022/10/26 10:22:21;;;;;;;4.88;1.50;;;17.70;99.90;;;15.68;86.67;100820.03;4851120;29;20479;-78
2022/10/26 10:25:02;;;;;;;4.80;1.77;;;17.50;99.90;;;15.54;92.04;100822.25;4848824;29;20029;-79
2022/10/26 10:27:29;;;;;;;4.35;1.40;;;17.10;99.90;;;15.61;94.33;100820.19;4852494;29;20481;-80
2022/10/26 10:30:12;;;;;;;5.55;1.70;;;17.10;99.90;;;15.65;89.44;100815.91;4848959;29;20034;-77
2022/10/26 10:32:38;;;;;;;3.30;1.25;;;17.20;99.90;;;15.80;90.82;100828.22;4853003;29;20105;-81